sensor_id;sensor_type;location;lat;lon;timestamp;P1;durP1;ratioP1;P2;durP2;ratioP2
36787;SDS011;22738;45.560;9.434;2022-12-18T00:06:39;28.05;;;15.90;;
36787;SDS011;22738;45.560;9.434;2022-12-18T00:13:21;27.05;;;14.35;;
36787;SDS011;22738;45.560;9.434;2022-12-18T00:20:03;27.17;;;15.37;;
36787;SDS011;22738;45.560;9.434;2022-12-18T00:26:44;24.70;;;13.77;;
36787;SDS011;22738;45.560;9.434;2022-12-18T00:33:25;28.58;;;15.18;;
36787;SDS011;22738;45.560;9.434;2022-12-18T00:40:07;25.27;;;13.57;;
36787;SDS011;22738;45.560;9.434;2022-12-18T00:46:48;26.23;;;14.88;;
36787;SDS011;22738;45.560;9.434;2022-12-18T00:53:29;25.85;;;14.55;;
36787;SDS011;22738;45.560;9.434;2022-12-18T01:00:12;28.95;;;14.23;;
36787;SDS011;22738;45.560;9.434;2022-12-18T01:06:56;28.63;;;15.00;;
36787;SDS011;22738;45.560;9.434;2022-12-18T01:13:37;28.40;;;14.23;;
36787;SDS011;22738;45.560;9.434;2022-12-18T01:20:19;32.00;;;15.35;;
36787;SDS011;22738;45.560;9.434;2022-12-18T01:27:00;33.50;;;16.88;;
36787;SDS011;22738;45.560;9.434;2022-12-18T01:33:41;29.90;;;16.80;;
36787;SDS011;22738;45.560;9.434;2022-12-18T01:40:22;28.90;;;15.45;;
36787;SDS011;22738;45.560;9.434;2022-12-18T01:47:06;30.95;;;15.55;;
36787;SDS011;22738;45.560;9.434;2022-12-18T01:53:47;25.58;;;13.68;;
36787;SDS011;22738;45.560;9.434;2022-12-18T02:00:28;27.80;;;15.80;;
36787;SDS011;22738;45.560;9.434;2022-12-18T02:07:13;31.50;;;15.63;;
36787;SDS011;22738;45.560;9.434;2022-12-18T02:14:17;28.27;;;15.30;;
36787;SDS011;22738;45.560;9.434;2022-12-18T02:27:53;32.03;;;17.13;;
36787;SDS011;22738;45.560;9.434;2022-12-18T02:34:41;32.97;;;17.48;;
36787;SDS011;22738;45.560;9.434;2022-12-18T02:41:28;31.58;;;16.15;;
36787;SDS011;22738;45.560;9.434;2022-12-18T03:01:57;35.03;;;17.95;;
36787;SDS011;22738;45.560;9.434;2022-12-18T03:08:45;36.13;;;16.75;;
36787;SDS011;22738;45.560;9.434;2022-12-18T03:15:34;38.85;;;16.85;;
36787;SDS011;22738;45.560;9.434;2022-12-18T03:22:23;41.50;;;19.17;;
36787;SDS011;22738;45.560;9.434;2022-12-18T03:29:19;37.45;;;17.55;;
36787;SDS011;22738;45.560;9.434;2022-12-18T03:36:06;36.92;;;18.13;;
36787;SDS011;22738;45.560;9.434;2022-12-18T03:42:50;39.03;;;19.57;;
36787;SDS011;22738;45.560;9.434;2022-12-18T03:56:48;40.35;;;19.75;;
36787;SDS011;22738;45.560;9.434;2022-12-18T04:03:36;31.98;;;16.60;;
36787;SDS011;22738;45.560;9.434;2022-12-18T04:10:21;43.30;;;17.83;;
36787;SDS011;22738;45.560;9.434;2022-12-18T04:17:03;37.47;;;17.30;;
36787;SDS011;22738;45.560;9.434;2022-12-18T04:23:47;39.80;;;19.02;;
36787;SDS011;22738;45.560;9.434;2022-12-18T04:30:28;36.40;;;19.00;;
36787;SDS011;22738;45.560;9.434;2022-12-18T04:37:09;43.17;;;19.58;;
36787;SDS011;22738;45.560;9.434;2022-12-18T04:50:34;48.15;;;20.80;;
36787;SDS011;22738;45.560;9.434;2022-12-18T04:57:15;46.17;;;19.65;;
36787;SDS011;22738;45.560;9.434;2022-12-18T05:03:56;50.58;;;21.70;;
36787;SDS011;22738;45.560;9.434;2022-12-18T05:10:37;55.25;;;23.35;;
36787;SDS011;22738;45.560;9.434;2022-12-18T05:17:18;53.17;;;22.60;;
36787;SDS011;22738;45.560;9.434;2022-12-18T05:23:59;57.67;;;23.67;;
36787;SDS011;22738;45.560;9.434;2022-12-18T05:30:47;58.90;;;23.77;;
36787;SDS011;22738;45.560;9.434;2022-12-18T05:37:29;59.17;;;23.55;;
36787;SDS011;22738;45.560;9.434;2022-12-18T05:44:10;56.67;;;23.70;;
36787;SDS011;22738;45.560;9.434;2022-12-18T05:50:53;50.87;;;22.90;;
36787;SDS011;22738;45.560;9.434;2022-12-18T05:57:34;66.45;;;26.67;;
36787;SDS011;22738;45.560;9.434;2022-12-18T06:04:15;67.20;;;26.13;;
36787;SDS011;22738;45.560;9.434;2022-12-18T06:10:56;62.30;;;24.33;;
36787;SDS011;22738;45.560;9.434;2022-12-18T06:17:37;68.18;;;26.30;;
36787;SDS011;22738;45.560;9.434;2022-12-18T06:24:18;73.53;;;26.83;;
36787;SDS011;22738;45.560;9.434;2022-12-18T06:30:59;78.93;;;25.75;;
36787;SDS011;22738;45.560;9.434;2022-12-18T06:37:40;72.53;;;26.73;;
36787;SDS011;22738;45.560;9.434;2022-12-18T06:44:21;63.58;;;25.60;;
36787;SDS011;22738;45.560;9.434;2022-12-18T06:51:03;64.13;;;26.67;;
36787;SDS011;22738;45.560;9.434;2022-12-18T06:57:44;64.53;;;25.42;;
36787;SDS011;22738;45.560;9.434;2022-12-18T07:04:29;75.65;;;27.15;;
36787;SDS011;22738;45.560;9.434;2022-12-18T07:11:10;65.28;;;25.55;;
36787;SDS011;22738;45.560;9.434;2022-12-18T07:17:52;77.45;;;27.52;;
36787;SDS011;22738;45.560;9.434;2022-12-18T07:24:33;83.53;;;29.58;;
36787;SDS011;22738;45.560;9.434;2022-12-18T07:31:21;82.55;;;28.30;;
36787;SDS011;22738;45.560;9.434;2022-12-18T07:38:02;69.50;;;27.42;;
36787;SDS011;22738;45.560;9.434;2022-12-18T07:44:43;77.72;;;29.05;;
36787;SDS011;22738;45.560;9.434;2022-12-18T07:51:24;80.72;;;29.88;;
36787;SDS011;22738;45.560;9.434;2022-12-18T07:58:05;80.28;;;29.10;;
36787;SDS011;22738;45.560;9.434;2022-12-18T08:04:48;84.17;;;30.70;;
36787;SDS011;22738;45.560;9.434;2022-12-18T08:11:30;77.07;;;28.15;;
36787;SDS011;22738;45.560;9.434;2022-12-18T08:18:11;75.95;;;27.08;;
36787;SDS011;22738;45.560;9.434;2022-12-18T08:24:52;79.88;;;27.42;;
36787;SDS011;22738;45.560;9.434;2022-12-18T08:31:33;71.93;;;26.55;;
36787;SDS011;22738;45.560;9.434;2022-12-18T08:38:14;83.18;;;28.45;;
36787;SDS011;22738;45.560;9.434;2022-12-18T08:44:55;75.32;;;28.10;;
36787;SDS011;22738;45.560;9.434;2022-12-18T08:51:36;78.85;;;28.08;;
36787;SDS011;22738;45.560;9.434;2022-12-18T08:58:18;73.22;;;26.27;;
36787;SDS011;22738;45.560;9.434;2022-12-18T09:05:01;83.60;;;29.38;;
36787;SDS011;22738;45.560;9.434;2022-12-18T09:11:42;68.63;;;26.27;;
36787;SDS011;22738;45.560;9.434;2022-12-18T09:18:23;79.25;;;29.77;;
36787;SDS011;22738;45.560;9.434;2022-12-18T09:25:08;77.95;;;27.15;;
36787;SDS011;22738;45.560;9.434;2022-12-18T09:31:49;70.25;;;26.27;;
36787;SDS011;22738;45.560;9.434;2022-12-18T09:38:30;61.60;;;23.50;;
36787;SDS011;22738;45.560;9.434;2022-12-18T09:45:12;76.40;;;27.60;;
36787;SDS011;22738;45.560;9.434;2022-12-18T09:52:02;61.83;;;24.33;;
36787;SDS011;22738;45.560;9.434;2022-12-18T09:58:50;69.22;;;26.83;;
36787;SDS011;22738;45.560;9.434;2022-12-18T10:05:46;71.50;;;27.58;;
36787;SDS011;22738;45.560;9.434;2022-12-18T10:20:01;72.40;;;26.90;;
36787;SDS011;22738;45.560;9.434;2022-12-18T10:26:49;66.43;;;26.13;;
36787;SDS011;22738;45.560;9.434;2022-12-18T10:33:34;71.68;;;25.73;;
36787;SDS011;22738;45.560;9.434;2022-12-18T10:40:15;73.65;;;26.15;;
36787;SDS011;22738;45.560;9.434;2022-12-18T10:47:02;78.38;;;25.98;;
36787;SDS011;22738;45.560;9.434;2022-12-18T10:53:50;60.92;;;25.67;;
36787;SDS011;22738;45.560;9.434;2022-12-18T11:00:34;69.20;;;25.80;;
36787;SDS011;22738;45.560;9.434;2022-12-18T11:07:16;64.50;;;24.92;;
36787;SDS011;22738;45.560;9.434;2022-12-18T11:14:04;66.30;;;23.52;;
36787;SDS011;22738;45.560;9.434;2022-12-18T11:20:51;67.38;;;23.67;;
36787;SDS011;22738;45.560;9.434;2022-12-18T11:27:34;66.22;;;24.48;;
36787;SDS011;22738;45.560;9.434;2022-12-18T11:34:28;66.10;;;26.48;;
36787;SDS011;22738;45.560;9.434;2022-12-18T11:48:21;66.25;;;22.58;;
36787;SDS011;22738;45.560;9.434;2022-12-18T12:02:39;51.67;;;21.50;;
36787;SDS011;22738;45.560;9.434;2022-12-18T12:23:40;47.72;;;20.27;;
36787;SDS011;22738;45.560;9.434;2022-12-18T12:44:13;28.90;;;13.90;;
36787;SDS011;22738;45.560;9.434;2022-12-18T12:51:43;17.83;;;9.88;;
36787;SDS011;22738;45.560;9.434;2022-12-18T13:05:39;33.65;;;15.50;;
36787;SDS011;22738;45.560;9.434;2022-12-18T13:12:25;32.80;;;16.58;;
36787;SDS011;22738;45.560;9.434;2022-12-18T13:19:25;43.72;;;19.55;;
36787;SDS011;22738;45.560;9.434;2022-12-18T13:39:55;44.13;;;21.45;;
36787;SDS011;22738;45.560;9.434;2022-12-18T13:46:46;45.50;;;21.05;;
36787;SDS011;22738;45.560;9.434;2022-12-18T14:00:29;58.25;;;21.88;;
36787;SDS011;22738;45.560;9.434;2022-12-18T14:07:12;44.08;;;21.67;;
36787;SDS011;22738;45.560;9.434;2022-12-18T14:13:56;43.35;;;22.15;;
36787;SDS011;22738;45.560;9.434;2022-12-18T14:20:39;45.03;;;21.13;;
36787;SDS011;22738;45.560;9.434;2022-12-18T14:27:29;45.33;;;21.05;;
36787;SDS011;22738;45.560;9.434;2022-12-18T14:34:16;42.97;;;21.58;;
36787;SDS011;22738;45.560;9.434;2022-12-18T14:40:58;47.75;;;21.45;;
36787;SDS011;22738;45.560;9.434;2022-12-18T14:47:42;50.60;;;23.17;;
36787;SDS011;22738;45.560;9.434;2022-12-18T14:54:24;45.43;;;22.27;;
36787;SDS011;22738;45.560;9.434;2022-12-18T15:01:06;47.10;;;22.37;;
36787;SDS011;22738;45.560;9.434;2022-12-18T15:07:51;43.10;;;22.02;;
36787;SDS011;22738;45.560;9.434;2022-12-18T15:21:21;39.22;;;20.48;;
36787;SDS011;22738;45.560;9.434;2022-12-18T15:28:03;43.90;;;20.63;;
36787;SDS011;22738;45.560;9.434;2022-12-18T15:34:44;44.10;;;21.13;;
36787;SDS011;22738;45.560;9.434;2022-12-18T15:41:25;48.17;;;21.85;;
36787;SDS011;22738;45.560;9.434;2022-12-18T15:48:20;50.10;;;22.77;;
36787;SDS011;22738;45.560;9.434;2022-12-18T15:55:05;49.63;;;23.73;;
36787;SDS011;22738;45.560;9.434;2022-12-18T16:02:12;46.08;;;22.17;;
36787;SDS011;22738;45.560;9.434;2022-12-18T16:08:57;62.97;;;25.52;;
36787;SDS011;22738;45.560;9.434;2022-12-18T16:15:39;60.97;;;27.37;;
36787;SDS011;22738;45.560;9.434;2022-12-18T16:22:22;62.45;;;28.58;;
36787;SDS011;22738;45.560;9.434;2022-12-18T16:29:08;67.43;;;28.20;;
36787;SDS011;22738;45.560;9.434;2022-12-18T16:42:32;70.22;;;27.88;;
36787;SDS011;22738;45.560;9.434;2022-12-18T16:49:14;66.47;;;27.35;;
36787;SDS011;22738;45.560;9.434;2022-12-18T16:55:57;68.57;;;28.13;;
36787;SDS011;22738;45.560;9.434;2022-12-18T17:02:38;75.72;;;28.33;;
36787;SDS011;22738;45.560;9.434;2022-12-18T17:09:19;72.90;;;28.58;;
36787;SDS011;22738;45.560;9.434;2022-12-18T17:16:09;73.10;;;29.83;;
36787;SDS011;22738;45.560;9.434;2022-12-18T17:22:51;66.95;;;30.08;;
36787;SDS011;22738;45.560;9.434;2022-12-18T17:29:32;70.80;;;27.88;;
36787;SDS011;22738;45.560;9.434;2022-12-18T17:36:13;65.20;;;26.92;;
36787;SDS011;22738;45.560;9.434;2022-12-18T17:42:55;57.22;;;25.38;;
36787;SDS011;22738;45.560;9.434;2022-12-18T17:49:37;73.27;;;29.03;;
36787;SDS011;22738;45.560;9.434;2022-12-18T17:56:19;64.03;;;26.20;;
36787;SDS011;22738;45.560;9.434;2022-12-18T18:03:03;67.10;;;27.40;;
36787;SDS011;22738;45.560;9.434;2022-12-18T18:09:44;68.07;;;27.30;;
36787;SDS011;22738;45.560;9.434;2022-12-18T18:23:15;73.13;;;30.10;;
36787;SDS011;22738;45.560;9.434;2022-12-18T18:29:58;75.37;;;32.07;;
36787;SDS011;22738;45.560;9.434;2022-12-18T18:36:39;68.15;;;28.35;;
36787;SDS011;22738;45.560;9.434;2022-12-18T18:43:21;66.43;;;29.15;;
36787;SDS011;22738;45.560;9.434;2022-12-18T18:50:02;68.80;;;28.60;;
36787;SDS011;22738;45.560;9.434;2022-12-18T18:56:43;66.00;;;27.40;;
36787;SDS011;22738;45.560;9.434;2022-12-18T19:03:25;65.95;;;26.95;;
36787;SDS011;22738;45.560;9.434;2022-12-18T19:10:07;59.05;;;26.17;;
36787;SDS011;22738;45.560;9.434;2022-12-18T19:16:49;70.53;;;28.00;;
36787;SDS011;22738;45.560;9.434;2022-12-18T19:23:30;61.25;;;28.42;;
36787;SDS011;22738;45.560;9.434;2022-12-18T19:30:12;65.70;;;27.42;;
36787;SDS011;22738;45.560;9.434;2022-12-18T19:36:54;67.68;;;27.13;;
36787;SDS011;22738;45.560;9.434;2022-12-18T19:43:36;67.50;;;29.00;;
36787;SDS011;22738;45.560;9.434;2022-12-18T19:50:18;68.25;;;28.25;;
36787;SDS011;22738;45.560;9.434;2022-12-18T19:56:59;61.65;;;25.85;;
36787;SDS011;22738;45.560;9.434;2022-12-18T20:03:42;67.30;;;26.83;;
36787;SDS011;22738;45.560;9.434;2022-12-18T20:10:23;74.45;;;27.95;;
36787;SDS011;22738;45.560;9.434;2022-12-18T20:17:04;73.18;;;29.65;;
36787;SDS011;22738;45.560;9.434;2022-12-18T20:23:45;84.40;;;29.98;;
36787;SDS011;22738;45.560;9.434;2022-12-18T20:30:27;70.80;;;29.73;;
36787;SDS011;22738;45.560;9.434;2022-12-18T20:37:08;72.75;;;26.25;;
36787;SDS011;22738;45.560;9.434;2022-12-18T20:43:49;79.93;;;28.83;;
36787;SDS011;22738;45.560;9.434;2022-12-18T20:50:31;76.93;;;28.48;;
36787;SDS011;22738;45.560;9.434;2022-12-18T20:57:12;69.27;;;27.97;;
36787;SDS011;22738;45.560;9.434;2022-12-18T21:03:53;67.47;;;26.55;;
36787;SDS011;22738;45.560;9.434;2022-12-18T21:10:34;59.63;;;25.30;;
36787;SDS011;22738;45.560;9.434;2022-12-18T21:17:15;66.38;;;26.52;;
36787;SDS011;22738;45.560;9.434;2022-12-18T21:23:56;64.03;;;25.75;;
36787;SDS011;22738;45.560;9.434;2022-12-18T21:30:38;61.65;;;25.88;;
36787;SDS011;22738;45.560;9.434;2022-12-18T21:37:19;69.05;;;27.35;;
36787;SDS011;22738;45.560;9.434;2022-12-18T21:44:00;62.65;;;26.92;;
36787;SDS011;22738;45.560;9.434;2022-12-18T21:50:47;66.35;;;26.95;;
36787;SDS011;22738;45.560;9.434;2022-12-18T21:57:28;66.93;;;26.83;;
36787;SDS011;22738;45.560;9.434;2022-12-18T22:04:09;64.13;;;26.60;;
36787;SDS011;22738;45.560;9.434;2022-12-18T22:10:51;66.30;;;28.15;;
36787;SDS011;22738;45.560;9.434;2022-12-18T22:17:32;61.92;;;24.83;;
36787;SDS011;22738;45.560;9.434;2022-12-18T22:24:20;67.10;;;26.08;;
36787;SDS011;22738;45.560;9.434;2022-12-18T22:31:06;69.20;;;27.15;;
36787;SDS011;22738;45.560;9.434;2022-12-18T22:37:47;57.20;;;25.27;;
36787;SDS011;22738;45.560;9.434;2022-12-18T22:44:28;61.67;;;25.98;;
36787;SDS011;22738;45.560;9.434;2022-12-18T22:51:16;59.33;;;25.90;;
36787;SDS011;22738;45.560;9.434;2022-12-18T22:57:58;64.05;;;26.05;;
36787;SDS011;22738;45.560;9.434;2022-12-18T23:04:39;65.65;;;28.15;;
36787;SDS011;22738;45.560;9.434;2022-12-18T23:11:20;61.10;;;26.60;;
36787;SDS011;22738;45.560;9.434;2022-12-18T23:18:01;73.93;;;28.20;;
36787;SDS011;22738;45.560;9.434;2022-12-18T23:24:42;64.18;;;24.92;;
36787;SDS011;22738;45.560;9.434;2022-12-18T23:31:24;64.35;;;25.33;;
36787;SDS011;22738;45.560;9.434;2022-12-18T23:38:07;70.18;;;28.00;;
36787;SDS011;22738;45.560;9.434;2022-12-18T23:44:48;58.75;;;24.70;;
36787;SDS011;22738;45.560;9.434;2022-12-18T23:51:30;66.18;;;26.02;;
36787;SDS011;22738;45.560;9.434;2022-12-18T23:58:21;73.23;;;25.43;;
